sensor_id;sensor_type;location;lat;lon;timestamp;P1;durP1;ratioP1;P2;durP2;ratioP2
12535;SDS011;6334;48.696;2.114;2023-07-20T00:01:32;4.10;;;3.10;;
12535;SDS011;6334;48.696;2.114;2023-07-20T00:04:02;3.53;;;2.83;;
12535;SDS011;6334;48.696;2.114;2023-07-20T00:06:33;4.83;;;3.03;;
12535;SDS011;6334;48.696;2.114;2023-07-20T00:09:03;4.50;;;2.67;;
12535;SDS011;6334;48.696;2.114;2023-07-20T00:11:35;3.67;;;3.30;;
12535;SDS011;6334;48.696;2.114;2023-07-20T00:14:04;3.73;;;2.83;;
12535;SDS011;6334;48.696;2.114;2023-07-20T00:16:34;5.73;;;3.10;;
12535;SDS011;6334;48.696;2.114;2023-07-20T00:19:04;3.77;;;3.20;;
12535;SDS011;6334;48.696;2.114;2023-07-20T00:21:35;7.10;;;3.30;;
12535;SDS011;6334;48.696;2.114;2023-07-20T00:24:05;4.83;;;3.10;;
12535;SDS011;6334;48.696;2.114;2023-07-20T00:26:36;5.47;;;3.20;;
12535;SDS011;6334;48.696;2.114;2023-07-20T00:29:06;5.83;;;3.20;;
12535;SDS011;6334;48.696;2.114;2023-07-20T00:31:37;4.60;;;2.83;;
12535;SDS011;6334;48.696;2.114;2023-07-20T00:34:07;4.43;;;2.70;;
12535;SDS011;6334;48.696;2.114;2023-07-20T00:36:37;3.53;;;2.90;;
12535;SDS011;6334;48.696;2.114;2023-07-20T00:39:08;4.23;;;3.03;;
12535;SDS011;6334;48.696;2.114;2023-07-20T00:41:38;4.77;;;2.93;;
12535;SDS011;6334;48.696;2.114;2023-07-20T00:44:09;3.00;;;2.63;;
12535;SDS011;6334;48.696;2.114;2023-07-20T00:46:39;4.73;;;2.73;;
12535;SDS011;6334;48.696;2.114;2023-07-20T00:49:10;6.83;;;3.23;;
12535;SDS011;6334;48.696;2.114;2023-07-20T00:51:40;5.07;;;2.90;;
12535;SDS011;6334;48.696;2.114;2023-07-20T00:54:11;5.10;;;2.97;;
12535;SDS011;6334;48.696;2.114;2023-07-20T00:56:41;4.00;;;2.67;;
12535;SDS011;6334;48.696;2.114;2023-07-20T00:59:12;7.87;;;3.00;;
12535;SDS011;6334;48.696;2.114;2023-07-20T01:01:42;7.83;;;3.57;;
12535;SDS011;6334;48.696;2.114;2023-07-20T01:04:13;3.63;;;2.90;;
12535;SDS011;6334;48.696;2.114;2023-07-20T01:06:45;3.03;;;2.73;;
12535;SDS011;6334;48.696;2.114;2023-07-20T01:09:24;5.00;;;2.77;;
12535;SDS011;6334;48.696;2.114;2023-07-20T01:12:06;4.57;;;3.13;;
12535;SDS011;6334;48.696;2.114;2023-07-20T01:14:34;3.57;;;2.63;;
12535;SDS011;6334;48.696;2.114;2023-07-20T01:17:05;3.40;;;3.10;;
12535;SDS011;6334;48.696;2.114;2023-07-20T01:19:35;5.40;;;2.90;;
12535;SDS011;6334;48.696;2.114;2023-07-20T01:22:09;7.57;;;3.03;;
12535;SDS011;6334;48.696;2.114;2023-07-20T01:25:06;4.67;;;2.70;;
12535;SDS011;6334;48.696;2.114;2023-07-20T01:33:02;4.40;;;2.87;;
12535;SDS011;6334;48.696;2.114;2023-07-20T01:35:33;3.30;;;3.00;;
12535;SDS011;6334;48.696;2.114;2023-07-20T01:38:03;5.77;;;2.90;;
12535;SDS011;6334;48.696;2.114;2023-07-20T01:40:34;3.80;;;3.10;;
12535;SDS011;6334;48.696;2.114;2023-07-20T01:43:05;6.87;;;3.20;;
12535;SDS011;6334;48.696;2.114;2023-07-20T01:45:35;4.53;;;3.13;;
12535;SDS011;6334;48.696;2.114;2023-07-20T01:48:06;3.40;;;2.97;;
12535;SDS011;6334;48.696;2.114;2023-07-20T01:50:36;10.20;;;2.90;;
12535;SDS011;6334;48.696;2.114;2023-07-20T01:53:08;7.30;;;3.17;;
12535;SDS011;6334;48.696;2.114;2023-07-20T01:55:37;3.80;;;2.63;;
12535;SDS011;6334;48.696;2.114;2023-07-20T01:58:08;4.73;;;3.10;;
12535;SDS011;6334;48.696;2.114;2023-07-20T02:00:38;6.17;;;3.43;;
12535;SDS011;6334;48.696;2.114;2023-07-20T02:03:09;3.97;;;2.60;;
12535;SDS011;6334;48.696;2.114;2023-07-20T02:05:39;5.13;;;3.23;;
12535;SDS011;6334;48.696;2.114;2023-07-20T02:08:09;4.93;;;2.90;;
12535;SDS011;6334;48.696;2.114;2023-07-20T02:10:40;3.20;;;2.90;;
12535;SDS011;6334;48.696;2.114;2023-07-20T02:13:10;3.90;;;3.10;;
12535;SDS011;6334;48.696;2.114;2023-07-20T02:15:41;6.37;;;3.50;;
12535;SDS011;6334;48.696;2.114;2023-07-20T02:18:11;6.70;;;3.23;;
12535;SDS011;6334;48.696;2.114;2023-07-20T02:20:41;3.70;;;2.93;;
12535;SDS011;6334;48.696;2.114;2023-07-20T02:23:13;6.60;;;3.10;;
12535;SDS011;6334;48.696;2.114;2023-07-20T02:25:43;4.70;;;3.50;;
12535;SDS011;6334;48.696;2.114;2023-07-20T02:28:14;5.17;;;3.10;;
12535;SDS011;6334;48.696;2.114;2023-07-20T02:30:44;6.27;;;3.37;;
12535;SDS011;6334;48.696;2.114;2023-07-20T02:33:16;4.80;;;3.27;;
12535;SDS011;6334;48.696;2.114;2023-07-20T02:35:46;5.47;;;3.43;;
12535;SDS011;6334;48.696;2.114;2023-07-20T02:38:17;5.17;;;3.37;;
12535;SDS011;6334;48.696;2.114;2023-07-20T02:40:47;5.27;;;3.50;;
12535;SDS011;6334;48.696;2.114;2023-07-20T02:43:18;7.00;;;4.03;;
12535;SDS011;6334;48.696;2.114;2023-07-20T02:45:49;6.53;;;3.77;;
12535;SDS011;6334;48.696;2.114;2023-07-20T02:48:19;4.27;;;3.40;;
12535;SDS011;6334;48.696;2.114;2023-07-20T02:50:49;8.10;;;3.80;;
12535;SDS011;6334;48.696;2.114;2023-07-20T02:53:20;7.67;;;3.53;;
12535;SDS011;6334;48.696;2.114;2023-07-20T02:55:50;5.97;;;3.70;;
12535;SDS011;6334;48.696;2.114;2023-07-20T02:58:20;5.30;;;3.40;;
12535;SDS011;6334;48.696;2.114;2023-07-20T03:00:51;6.00;;;3.37;;
12535;SDS011;6334;48.696;2.114;2023-07-20T03:03:21;5.47;;;3.70;;
12535;SDS011;6334;48.696;2.114;2023-07-20T03:05:52;6.33;;;3.60;;
12535;SDS011;6334;48.696;2.114;2023-07-20T03:08:22;5.77;;;3.50;;
12535;SDS011;6334;48.696;2.114;2023-07-20T03:10:53;5.60;;;3.50;;
12535;SDS011;6334;48.696;2.114;2023-07-20T03:13:23;5.40;;;3.60;;
12535;SDS011;6334;48.696;2.114;2023-07-20T03:15:54;7.00;;;3.30;;
12535;SDS011;6334;48.696;2.114;2023-07-20T03:18:24;7.00;;;3.10;;
12535;SDS011;6334;48.696;2.114;2023-07-20T03:20:55;5.70;;;3.50;;
12535;SDS011;6334;48.696;2.114;2023-07-20T03:23:25;6.27;;;3.70;;
12535;SDS011;6334;48.696;2.114;2023-07-20T03:25:55;3.97;;;2.90;;
12535;SDS011;6334;48.696;2.114;2023-07-20T03:28:26;5.27;;;3.30;;
12535;SDS011;6334;48.696;2.114;2023-07-20T03:30:56;5.43;;;3.70;;
12535;SDS011;6334;48.696;2.114;2023-07-20T03:33:27;7.10;;;3.73;;
12535;SDS011;6334;48.696;2.114;2023-07-20T03:35:57;3.27;;;3.07;;
12535;SDS011;6334;48.696;2.114;2023-07-20T03:38:28;4.50;;;2.67;;
12535;SDS011;6334;48.696;2.114;2023-07-20T03:40:59;4.00;;;2.97;;
12535;SDS011;6334;48.696;2.114;2023-07-20T03:43:29;4.20;;;3.03;;
12535;SDS011;6334;48.696;2.114;2023-07-20T03:45:59;3.00;;;2.53;;
12535;SDS011;6334;48.696;2.114;2023-07-20T03:48:30;5.90;;;2.90;;
12535;SDS011;6334;48.696;2.114;2023-07-20T03:51:00;3.90;;;2.90;;
12535;SDS011;6334;48.696;2.114;2023-07-20T03:53:31;5.13;;;3.13;;
12535;SDS011;6334;48.696;2.114;2023-07-20T03:56:01;4.20;;;3.20;;
12535;SDS011;6334;48.696;2.114;2023-07-20T03:58:32;5.33;;;3.00;;
12535;SDS011;6334;48.696;2.114;2023-07-20T04:01:02;6.23;;;3.33;;
12535;SDS011;6334;48.696;2.114;2023-07-20T04:03:33;3.27;;;3.03;;
12535;SDS011;6334;48.696;2.114;2023-07-20T04:06:03;3.67;;;3.10;;
12535;SDS011;6334;48.696;2.114;2023-07-20T04:08:33;4.80;;;3.03;;
12535;SDS011;6334;48.696;2.114;2023-07-20T04:11:04;5.33;;;3.23;;
12535;SDS011;6334;48.696;2.114;2023-07-20T04:13:34;7.33;;;3.27;;
12535;SDS011;6334;48.696;2.114;2023-07-20T04:16:05;4.67;;;3.10;;
12535;SDS011;6334;48.696;2.114;2023-07-20T04:18:35;4.43;;;3.10;;
12535;SDS011;6334;48.696;2.114;2023-07-20T04:21:07;3.83;;;2.97;;
12535;SDS011;6334;48.696;2.114;2023-07-20T04:23:36;3.03;;;2.50;;
12535;SDS011;6334;48.696;2.114;2023-07-20T04:26:07;4.87;;;3.40;;
12535;SDS011;6334;48.696;2.114;2023-07-20T04:28:37;3.87;;;3.30;;
12535;SDS011;6334;48.696;2.114;2023-07-20T04:31:11;3.03;;;2.73;;
12535;SDS011;6334;48.696;2.114;2023-07-20T04:33:44;4.40;;;2.80;;
12535;SDS011;6334;48.696;2.114;2023-07-20T04:36:14;4.30;;;3.30;;
12535;SDS011;6334;48.696;2.114;2023-07-20T04:38:45;4.13;;;3.40;;
12535;SDS011;6334;48.696;2.114;2023-07-20T04:41:15;4.80;;;3.10;;
12535;SDS011;6334;48.696;2.114;2023-07-20T04:43:45;5.57;;;3.53;;
12535;SDS011;6334;48.696;2.114;2023-07-20T04:46:16;4.20;;;3.27;;
12535;SDS011;6334;48.696;2.114;2023-07-20T04:48:47;8.00;;;3.53;;
12535;SDS011;6334;48.696;2.114;2023-07-20T04:51:18;3.43;;;3.13;;
12535;SDS011;6334;48.696;2.114;2023-07-20T04:53:48;3.33;;;3.03;;
12535;SDS011;6334;48.696;2.114;2023-07-20T04:56:19;4.47;;;2.70;;
12535;SDS011;6334;48.696;2.114;2023-07-20T04:58:52;3.00;;;2.70;;
12535;SDS011;6334;48.696;2.114;2023-07-20T05:01:23;4.93;;;3.07;;
12535;SDS011;6334;48.696;2.114;2023-07-20T05:03:54;4.13;;;3.07;;
12535;SDS011;6334;48.696;2.114;2023-07-20T05:06:25;2.90;;;2.70;;
12535;SDS011;6334;48.696;2.114;2023-07-20T05:08:55;4.13;;;3.03;;
12535;SDS011;6334;48.696;2.114;2023-07-20T05:11:26;3.27;;;2.90;;
12535;SDS011;6334;48.696;2.114;2023-07-20T05:13:56;3.80;;;3.10;;
12535;SDS011;6334;48.696;2.114;2023-07-20T05:16:27;3.13;;;2.83;;
12535;SDS011;6334;48.696;2.114;2023-07-20T05:18:57;4.73;;;2.87;;
12535;SDS011;6334;48.696;2.114;2023-07-20T05:21:27;3.23;;;2.77;;
12535;SDS011;6334;48.696;2.114;2023-07-20T05:23:58;2.83;;;2.57;;
12535;SDS011;6334;48.696;2.114;2023-07-20T05:26:28;5.77;;;2.97;;
12535;SDS011;6334;48.696;2.114;2023-07-20T05:28:59;4.73;;;3.17;;
12535;SDS011;6334;48.696;2.114;2023-07-20T05:31:29;6.63;;;3.10;;
12535;SDS011;6334;48.696;2.114;2023-07-20T05:34:00;3.97;;;2.73;;
12535;SDS011;6334;48.696;2.114;2023-07-20T05:36:30;6.20;;;2.97;;
12535;SDS011;6334;48.696;2.114;2023-07-20T05:39:01;3.73;;;2.83;;
12535;SDS011;6334;48.696;2.114;2023-07-20T05:41:31;5.43;;;3.00;;
12535;SDS011;6334;48.696;2.114;2023-07-20T05:44:01;4.60;;;3.40;;
12535;SDS011;6334;48.696;2.114;2023-07-20T05:46:32;3.83;;;2.80;;
12535;SDS011;6334;48.696;2.114;2023-07-20T05:49:04;3.87;;;2.97;;
12535;SDS011;6334;48.696;2.114;2023-07-20T05:51:34;3.90;;;2.80;;
12535;SDS011;6334;48.696;2.114;2023-07-20T05:54:05;6.10;;;3.20;;
12535;SDS011;6334;48.696;2.114;2023-07-20T05:56:35;5.83;;;2.73;;
12535;SDS011;6334;48.696;2.114;2023-07-20T05:59:06;3.30;;;3.00;;
12535;SDS011;6334;48.696;2.114;2023-07-20T06:01:36;4.33;;;2.90;;
12535;SDS011;6334;48.696;2.114;2023-07-20T06:04:06;4.73;;;2.93;;
12535;SDS011;6334;48.696;2.114;2023-07-20T06:06:37;6.00;;;2.83;;
12535;SDS011;6334;48.696;2.114;2023-07-20T06:09:07;4.67;;;3.30;;
12535;SDS011;6334;48.696;2.114;2023-07-20T06:11:38;3.33;;;2.80;;
12535;SDS011;6334;48.696;2.114;2023-07-20T06:14:08;3.37;;;2.53;;
12535;SDS011;6334;48.696;2.114;2023-07-20T06:16:39;3.87;;;2.97;;
12535;SDS011;6334;48.696;2.114;2023-07-20T06:19:09;3.70;;;2.90;;
12535;SDS011;6334;48.696;2.114;2023-07-20T06:21:41;2.97;;;2.77;;
12535;SDS011;6334;48.696;2.114;2023-07-20T06:24:11;4.83;;;2.73;;
12535;SDS011;6334;48.696;2.114;2023-07-20T06:26:41;7.83;;;3.03;;
12535;SDS011;6334;48.696;2.114;2023-07-20T06:29:12;8.07;;;3.50;;
12535;SDS011;6334;48.696;2.114;2023-07-20T06:31:42;8.53;;;3.80;;
12535;SDS011;6334;48.696;2.114;2023-07-20T06:34:13;9.17;;;3.43;;
12535;SDS011;6334;48.696;2.114;2023-07-20T06:36:43;5.93;;;3.50;;
12535;SDS011;6334;48.696;2.114;2023-07-20T06:39:14;4.60;;;3.00;;
12535;SDS011;6334;48.696;2.114;2023-07-20T06:41:44;7.27;;;3.20;;
12535;SDS011;6334;48.696;2.114;2023-07-20T06:44:15;4.90;;;2.80;;
12535;SDS011;6334;48.696;2.114;2023-07-20T06:46:45;3.53;;;3.10;;
12535;SDS011;6334;48.696;2.114;2023-07-20T06:49:27;3.73;;;3.17;;
12535;SDS011;6334;48.696;2.114;2023-07-20T06:51:58;5.60;;;3.30;;
12535;SDS011;6334;48.696;2.114;2023-07-20T06:54:28;6.03;;;3.20;;
12535;SDS011;6334;48.696;2.114;2023-07-20T06:56:58;5.83;;;3.30;;
12535;SDS011;6334;48.696;2.114;2023-07-20T06:59:29;5.40;;;3.27;;
12535;SDS011;6334;48.696;2.114;2023-07-20T07:01:59;4.70;;;2.90;;
12535;SDS011;6334;48.696;2.114;2023-07-20T07:04:30;3.47;;;2.80;;
12535;SDS011;6334;48.696;2.114;2023-07-20T07:07:00;6.43;;;3.07;;
12535;SDS011;6334;48.696;2.114;2023-07-20T07:09:31;4.20;;;2.87;;
12535;SDS011;6334;48.696;2.114;2023-07-20T07:12:02;6.33;;;3.37;;
12535;SDS011;6334;48.696;2.114;2023-07-20T07:14:32;3.93;;;2.93;;
12535;SDS011;6334;48.696;2.114;2023-07-20T07:17:02;5.40;;;3.17;;
12535;SDS011;6334;48.696;2.114;2023-07-20T07:19:33;5.30;;;3.30;;
12535;SDS011;6334;48.696;2.114;2023-07-20T07:22:03;4.20;;;2.90;;
12535;SDS011;6334;48.696;2.114;2023-07-20T07:24:34;3.17;;;2.70;;
12535;SDS011;6334;48.696;2.114;2023-07-20T07:27:04;4.10;;;3.37;;
12535;SDS011;6334;48.696;2.114;2023-07-20T07:29:35;3.50;;;3.20;;
12535;SDS011;6334;48.696;2.114;2023-07-20T07:32:07;5.37;;;2.70;;
12535;SDS011;6334;48.696;2.114;2023-07-20T07:34:37;3.90;;;2.87;;
12535;SDS011;6334;48.696;2.114;2023-07-20T07:37:07;3.73;;;2.83;;
12535;SDS011;6334;48.696;2.114;2023-07-20T07:39:38;4.10;;;2.97;;
12535;SDS011;6334;48.696;2.114;2023-07-20T07:42:08;2.93;;;2.50;;
12535;SDS011;6334;48.696;2.114;2023-07-20T07:44:39;3.97;;;2.80;;
12535;SDS011;6334;48.696;2.114;2023-07-20T07:47:10;2.33;;;2.23;;
12535;SDS011;6334;48.696;2.114;2023-07-20T07:49:41;2.60;;;2.40;;
12535;SDS011;6334;48.696;2.114;2023-07-20T07:52:11;3.70;;;2.73;;
12535;SDS011;6334;48.696;2.114;2023-07-20T07:54:42;3.07;;;2.77;;
12535;SDS011;6334;48.696;2.114;2023-07-20T07:57:14;3.97;;;2.87;;
12535;SDS011;6334;48.696;2.114;2023-07-20T07:59:44;2.80;;;2.60;;
12535;SDS011;6334;48.696;2.114;2023-07-20T08:02:15;5.53;;;2.67;;
12535;SDS011;6334;48.696;2.114;2023-07-20T08:04:45;3.07;;;2.60;;
12535;SDS011;6334;48.696;2.114;2023-07-20T08:07:15;3.87;;;2.40;;
12535;SDS011;6334;48.696;2.114;2023-07-20T08:09:46;3.20;;;2.00;;
12535;SDS011;6334;48.696;2.114;2023-07-20T08:12:16;3.07;;;2.57;;
12535;SDS011;6334;48.696;2.114;2023-07-20T08:14:47;3.63;;;2.57;;
12535;SDS011;6334;48.696;2.114;2023-07-20T08:17:17;2.07;;;1.97;;
12535;SDS011;6334;48.696;2.114;2023-07-20T08:19:48;2.67;;;2.37;;
12535;SDS011;6334;48.696;2.114;2023-07-20T08:22:18;4.57;;;2.17;;
12535;SDS011;6334;48.696;2.114;2023-07-20T08:24:49;2.27;;;1.93;;
12535;SDS011;6334;48.696;2.114;2023-07-20T08:27:19;2.70;;;1.90;;
12535;SDS011;6334;48.696;2.114;2023-07-20T08:29:50;2.87;;;2.60;;
12535;SDS011;6334;48.696;2.114;2023-07-20T08:32:20;2.17;;;1.70;;
12535;SDS011;6334;48.696;2.114;2023-07-20T08:34:50;1.40;;;1.40;;
12535;SDS011;6334;48.696;2.114;2023-07-20T08:37:21;2.70;;;1.87;;
12535;SDS011;6334;48.696;2.114;2023-07-20T08:39:51;2.57;;;2.00;;
12535;SDS011;6334;48.696;2.114;2023-07-20T08:42:22;2.63;;;2.33;;
12535;SDS011;6334;48.696;2.114;2023-07-20T08:44:52;4.40;;;2.50;;
12535;SDS011;6334;48.696;2.114;2023-07-20T08:47:23;2.83;;;1.80;;
12535;SDS011;6334;48.696;2.114;2023-07-20T08:49:53;2.00;;;1.80;;
12535;SDS011;6334;48.696;2.114;2023-07-20T08:52:24;2.47;;;2.00;;
12535;SDS011;6334;48.696;2.114;2023-07-20T08:54:54;3.73;;;2.20;;
12535;SDS011;6334;48.696;2.114;2023-07-20T08:57:25;2.90;;;2.30;;
12535;SDS011;6334;48.696;2.114;2023-07-20T08:59:55;5.50;;;1.97;;
12535;SDS011;6334;48.696;2.114;2023-07-20T09:02:25;1.70;;;1.60;;
12535;SDS011;6334;48.696;2.114;2023-07-20T09:04:56;2.20;;;1.83;;
12535;SDS011;6334;48.696;2.114;2023-07-20T09:07:26;2.03;;;1.77;;
12535;SDS011;6334;48.696;2.114;2023-07-20T09:09:57;1.90;;;1.80;;
12535;SDS011;6334;48.696;2.114;2023-07-20T09:12:27;2.80;;;2.20;;
12535;SDS011;6334;48.696;2.114;2023-07-20T09:14:59;2.50;;;2.13;;
12535;SDS011;6334;48.696;2.114;2023-07-20T09:17:29;1.63;;;1.53;;
12535;SDS011;6334;48.696;2.114;2023-07-20T09:20:03;2.10;;;1.80;;
12535;SDS011;6334;48.696;2.114;2023-07-20T09:22:39;1.90;;;1.80;;
12535;SDS011;6334;48.696;2.114;2023-07-20T09:27:43;1.87;;;1.77;;
12535;SDS011;6334;48.696;2.114;2023-07-20T09:30:16;1.87;;;1.77;;
12535;SDS011;6334;48.696;2.114;2023-07-20T09:32:47;2.00;;;1.57;;
12535;SDS011;6334;48.696;2.114;2023-07-20T09:35:22;3.10;;;1.70;;
12535;SDS011;6334;48.696;2.114;2023-07-20T09:37:58;1.70;;;1.60;;
12535;SDS011;6334;48.696;2.114;2023-07-20T09:40:28;2.20;;;2.00;;
12535;SDS011;6334;48.696;2.114;2023-07-20T09:42:58;1.70;;;1.60;;
12535;SDS011;6334;48.696;2.114;2023-07-20T09:45:29;2.50;;;2.00;;
12535;SDS011;6334;48.696;2.114;2023-07-20T09:48:05;1.80;;;1.70;;
12535;SDS011;6334;48.696;2.114;2023-07-20T09:50:56;1.83;;;1.73;;
12535;SDS011;6334;48.696;2.114;2023-07-20T09:53:11;1.80;;;1.70;;
12535;SDS011;6334;48.696;2.114;2023-07-20T09:55:43;1.63;;;1.53;;
12535;SDS011;6334;48.696;2.114;2023-07-20T09:58:12;2.17;;;1.97;;
12535;SDS011;6334;48.696;2.114;2023-07-20T10:00:43;2.07;;;1.87;;
12535;SDS011;6334;48.696;2.114;2023-07-20T10:03:22;1.67;;;1.57;;
12535;SDS011;6334;48.696;2.114;2023-07-20T10:05:54;2.50;;;2.30;;
12535;SDS011;6334;48.696;2.114;2023-07-20T10:08:25;2.80;;;1.90;;
12535;SDS011;6334;48.696;2.114;2023-07-20T10:10:55;1.97;;;1.87;;
12535;SDS011;6334;48.696;2.114;2023-07-20T10:13:25;1.70;;;1.60;;
12535;SDS011;6334;48.696;2.114;2023-07-20T10:16:02;2.13;;;1.43;;
12535;SDS011;6334;48.696;2.114;2023-07-20T10:21:11;1.77;;;1.70;;
12535;SDS011;6334;48.696;2.114;2023-07-20T10:23:42;1.83;;;1.73;;
12535;SDS011;6334;48.696;2.114;2023-07-20T10:26:13;2.73;;;1.37;;
12535;SDS011;6334;48.696;2.114;2023-07-20T10:28:43;3.23;;;2.17;;
12535;SDS011;6334;48.696;2.114;2023-07-20T10:31:14;1.70;;;1.60;;
12535;SDS011;6334;48.696;2.114;2023-07-20T10:33:44;1.63;;;1.40;;
12535;SDS011;6334;48.696;2.114;2023-07-20T10:36:15;2.53;;;2.33;;
12535;SDS011;6334;48.696;2.114;2023-07-20T10:41:16;1.70;;;1.60;;
12535;SDS011;6334;48.696;2.114;2023-07-20T10:43:49;1.80;;;1.70;;
12535;SDS011;6334;48.696;2.114;2023-07-20T10:46:35;2.07;;;1.87;;
12535;SDS011;6334;48.696;2.114;2023-07-20T10:49:13;4.37;;;2.47;;
12535;SDS011;6334;48.696;2.114;2023-07-20T10:51:43;1.80;;;1.70;;
12535;SDS011;6334;48.696;2.114;2023-07-20T10:56:48;1.60;;;1.50;;
12535;SDS011;6334;48.696;2.114;2023-07-20T10:59:19;2.53;;;2.20;;
12535;SDS011;6334;48.696;2.114;2023-07-20T11:01:49;1.90;;;1.80;;
12535;SDS011;6334;48.696;2.114;2023-07-20T11:04:19;2.73;;;2.10;;
12535;SDS011;6334;48.696;2.114;2023-07-20T11:06:54;1.43;;;1.40;;
12535;SDS011;6334;48.696;2.114;2023-07-20T11:09:26;2.00;;;1.90;;
12535;SDS011;6334;48.696;2.114;2023-07-20T11:12:09;2.60;;;1.93;;
12535;SDS011;6334;48.696;2.114;2023-07-20T11:14:27;1.77;;;1.67;;
12535;SDS011;6334;48.696;2.114;2023-07-20T11:16:58;1.60;;;1.50;;
12535;SDS011;6334;48.696;2.114;2023-07-20T11:19:28;3.87;;;1.70;;
12535;SDS011;6334;48.696;2.114;2023-07-20T11:21:58;2.43;;;2.23;;
12535;SDS011;6334;48.696;2.114;2023-07-20T11:24:29;1.87;;;1.50;;
12535;SDS011;6334;48.696;2.114;2023-07-20T11:27:00;1.40;;;1.40;;
12535;SDS011;6334;48.696;2.114;2023-07-20T11:29:30;1.60;;;1.50;;
12535;SDS011;6334;48.696;2.114;2023-07-20T11:32:01;4.23;;;1.90;;
12535;SDS011;6334;48.696;2.114;2023-07-20T11:34:32;2.13;;;1.63;;
12535;SDS011;6334;48.696;2.114;2023-07-20T11:37:03;2.10;;;1.90;;
12535;SDS011;6334;48.696;2.114;2023-07-20T11:39:33;1.87;;;1.77;;
12535;SDS011;6334;48.696;2.114;2023-07-20T11:42:03;1.63;;;1.50;;
12535;SDS011;6334;48.696;2.114;2023-07-20T11:44:34;2.17;;;2.00;;
12535;SDS011;6334;48.696;2.114;2023-07-20T11:47:10;1.60;;;1.50;;
12535;SDS011;6334;48.696;2.114;2023-07-20T11:49:43;2.00;;;1.90;;
12535;SDS011;6334;48.696;2.114;2023-07-20T11:52:13;1.50;;;1.40;;
12535;SDS011;6334;48.696;2.114;2023-07-20T11:54:40;1.57;;;1.57;;
12535;SDS011;6334;48.696;2.114;2023-07-20T11:57:19;1.80;;;1.70;;
12535;SDS011;6334;48.696;2.114;2023-07-20T12:00:00;1.87;;;1.73;;
12535;SDS011;6334;48.696;2.114;2023-07-20T12:02:26;1.80;;;1.70;;
12535;SDS011;6334;48.696;2.114;2023-07-20T12:04:57;2.37;;;2.20;;
12535;SDS011;6334;48.696;2.114;2023-07-20T12:07:27;1.30;;;1.30;;
12535;SDS011;6334;48.696;2.114;2023-07-20T12:10:07;3.00;;;2.00;;
12535;SDS011;6334;48.696;2.114;2023-07-20T12:12:40;2.97;;;1.70;;
12535;SDS011;6334;48.696;2.114;2023-07-20T12:15:13;2.03;;;1.93;;
12535;SDS011;6334;48.696;2.114;2023-07-20T12:17:46;2.93;;;2.07;;
12535;SDS011;6334;48.696;2.114;2023-07-20T12:20:29;3.93;;;2.30;;
12535;SDS011;6334;48.696;2.114;2023-07-20T12:23:00;1.90;;;1.80;;
12535;SDS011;6334;48.696;2.114;2023-07-20T12:25:39;1.30;;;1.30;;
12535;SDS011;6334;48.696;2.114;2023-07-20T12:28:10;2.10;;;1.77;;
12535;SDS011;6334;48.696;2.114;2023-07-20T12:30:45;1.63;;;1.53;;
12535;SDS011;6334;48.696;2.114;2023-07-20T12:33:15;1.20;;;1.20;;
12535;SDS011;6334;48.696;2.114;2023-07-20T12:35:46;2.43;;;1.97;;
12535;SDS011;6334;48.696;2.114;2023-07-20T12:38:16;2.10;;;2.00;;
12535;SDS011;6334;48.696;2.114;2023-07-20T12:40:47;2.00;;;1.90;;
12535;SDS011;6334;48.696;2.114;2023-07-20T12:43:17;1.57;;;1.50;;
12535;SDS011;6334;48.696;2.114;2023-07-20T12:45:48;1.40;;;1.40;;
12535;SDS011;6334;48.696;2.114;2023-07-20T12:48:19;2.27;;;1.90;;
12535;SDS011;6334;48.696;2.114;2023-07-20T12:50:49;1.50;;;1.47;;
12535;SDS011;6334;48.696;2.114;2023-07-20T12:53:20;1.60;;;1.50;;
12535;SDS011;6334;48.696;2.114;2023-07-20T12:55:50;1.80;;;1.70;;
12535;SDS011;6334;48.696;2.114;2023-07-20T12:58:21;1.97;;;1.87;;
12535;SDS011;6334;48.696;2.114;2023-07-20T13:00:51;4.03;;;1.63;;
12535;SDS011;6334;48.696;2.114;2023-07-20T13:03:22;2.30;;;2.10;;
12535;SDS011;6334;48.696;2.114;2023-07-20T13:05:52;2.50;;;2.00;;
12535;SDS011;6334;48.696;2.114;2023-07-20T13:08:23;2.00;;;1.90;;
12535;SDS011;6334;48.696;2.114;2023-07-20T13:10:53;2.97;;;2.20;;
12535;SDS011;6334;48.696;2.114;2023-07-20T13:13:24;3.43;;;2.20;;
12535;SDS011;6334;48.696;2.114;2023-07-20T13:15:54;1.70;;;1.60;;
12535;SDS011;6334;48.696;2.114;2023-07-20T13:18:25;2.77;;;2.57;;
12535;SDS011;6334;48.696;2.114;2023-07-20T13:20:55;2.00;;;1.90;;
12535;SDS011;6334;48.696;2.114;2023-07-20T13:23:25;1.90;;;1.80;;
12535;SDS011;6334;48.696;2.114;2023-07-20T13:25:56;1.93;;;1.83;;
12535;SDS011;6334;48.696;2.114;2023-07-20T13:28:28;1.80;;;1.70;;
12535;SDS011;6334;48.696;2.114;2023-07-20T13:30:58;1.73;;;1.63;;
12535;SDS011;6334;48.696;2.114;2023-07-20T13:33:29;1.77;;;1.67;;
12535;SDS011;6334;48.696;2.114;2023-07-20T13:35:59;1.87;;;1.77;;
12535;SDS011;6334;48.696;2.114;2023-07-20T13:38:30;1.80;;;1.70;;
12535;SDS011;6334;48.696;2.114;2023-07-20T13:41:00;1.90;;;1.60;;
12535;SDS011;6334;48.696;2.114;2023-07-20T13:43:31;2.07;;;1.87;;
12535;SDS011;6334;48.696;2.114;2023-07-20T13:46:01;1.87;;;1.77;;
12535;SDS011;6334;48.696;2.114;2023-07-20T13:48:31;2.93;;;2.07;;
12535;SDS011;6334;48.696;2.114;2023-07-20T13:51:02;1.80;;;1.70;;
12535;SDS011;6334;48.696;2.114;2023-07-20T13:53:32;1.63;;;1.63;;
12535;SDS011;6334;48.696;2.114;2023-07-20T13:56:03;1.93;;;1.73;;
12535;SDS011;6334;48.696;2.114;2023-07-20T13:58:33;1.67;;;1.57;;
12535;SDS011;6334;48.696;2.114;2023-07-20T14:01:04;5.40;;;1.87;;
12535;SDS011;6334;48.696;2.114;2023-07-20T14:03:34;1.43;;;1.43;;
12535;SDS011;6334;48.696;2.114;2023-07-20T14:06:05;3.33;;;1.83;;
12535;SDS011;6334;48.696;2.114;2023-07-20T14:08:35;1.73;;;1.63;;
12535;SDS011;6334;48.696;2.114;2023-07-20T14:11:06;1.97;;;1.87;;
12535;SDS011;6334;48.696;2.114;2023-07-20T14:13:36;1.87;;;1.77;;
12535;SDS011;6334;48.696;2.114;2023-07-20T14:16:07;1.73;;;1.63;;
12535;SDS011;6334;48.696;2.114;2023-07-20T14:18:37;2.00;;;1.90;;
12535;SDS011;6334;48.696;2.114;2023-07-20T14:21:07;2.77;;;1.50;;
12535;SDS011;6334;48.696;2.114;2023-07-20T14:23:38;2.63;;;1.83;;
12535;SDS011;6334;48.696;2.114;2023-07-20T14:26:08;1.53;;;1.47;;
12535;SDS011;6334;48.696;2.114;2023-07-20T14:28:39;1.30;;;1.30;;
12535;SDS011;6334;48.696;2.114;2023-07-20T14:31:09;2.10;;;1.90;;
12535;SDS011;6334;48.696;2.114;2023-07-20T14:33:40;2.37;;;1.80;;
12535;SDS011;6334;48.696;2.114;2023-07-20T14:36:10;3.03;;;1.60;;
12535;SDS011;6334;48.696;2.114;2023-07-20T14:38:41;1.60;;;1.50;;
12535;SDS011;6334;48.696;2.114;2023-07-20T14:41:11;1.40;;;1.40;;
12535;SDS011;6334;48.696;2.114;2023-07-20T14:43:42;1.57;;;1.47;;
12535;SDS011;6334;48.696;2.114;2023-07-20T14:46:12;1.93;;;1.77;;
12535;SDS011;6334;48.696;2.114;2023-07-20T14:48:42;2.40;;;1.90;;
12535;SDS011;6334;48.696;2.114;2023-07-20T14:51:13;1.73;;;1.63;;
12535;SDS011;6334;48.696;2.114;2023-07-20T14:53:43;1.97;;;1.87;;
12535;SDS011;6334;48.696;2.114;2023-07-20T14:56:14;2.97;;;1.70;;
12535;SDS011;6334;48.696;2.114;2023-07-20T14:58:44;2.97;;;2.00;;
12535;SDS011;6334;48.696;2.114;2023-07-20T15:01:15;1.60;;;1.50;;
12535;SDS011;6334;48.696;2.114;2023-07-20T15:03:45;2.10;;;1.90;;
12535;SDS011;6334;48.696;2.114;2023-07-20T15:06:16;2.20;;;2.00;;
12535;SDS011;6334;48.696;2.114;2023-07-20T15:08:46;2.30;;;1.80;;
12535;SDS011;6334;48.696;2.114;2023-07-20T15:11:17;2.30;;;2.07;;
12535;SDS011;6334;48.696;2.114;2023-07-20T15:13:47;5.53;;;1.60;;
12535;SDS011;6334;48.696;2.114;2023-07-20T15:16:18;1.80;;;1.63;;
12535;SDS011;6334;48.696;2.114;2023-07-20T15:18:48;1.80;;;1.70;;
12535;SDS011;6334;48.696;2.114;2023-07-20T15:21:18;1.90;;;1.80;;
12535;SDS011;6334;48.696;2.114;2023-07-20T15:23:49;1.53;;;1.53;;
12535;SDS011;6334;48.696;2.114;2023-07-20T15:26:19;1.73;;;1.63;;
12535;SDS011;6334;48.696;2.114;2023-07-20T15:28:50;2.20;;;2.00;;
12535;SDS011;6334;48.696;2.114;2023-07-20T15:31:20;1.60;;;1.60;;
12535;SDS011;6334;48.696;2.114;2023-07-20T15:33:51;2.03;;;1.87;;
12535;SDS011;6334;48.696;2.114;2023-07-20T15:36:21;2.00;;;1.70;;
12535;SDS011;6334;48.696;2.114;2023-07-20T15:38:52;2.93;;;1.60;;